createdAt,value
2023-05-07T00:00:03.627Z,8.01
2023-05-07T00:00:13.897Z,8.02
2023-05-07T00:00:23.637Z,8.02
2023-05-07T00:00:33.633Z,8.01
2023-05-07T00:00:43.635Z,8.02
2023-05-07T00:00:53.644Z,8.01
2023-05-07T00:01:03.634Z,7.98
2023-05-07T00:01:13.646Z,8.01
2023-05-07T00:01:23.640Z,7.98
2023-05-07T00:01:33.663Z,7.98
2023-05-07T00:01:53.637Z,7.98
2023-05-07T00:02:03.654Z,7.98
2023-05-07T00:02:13.642Z,7.97
2023-05-07T00:02:23.757Z,7.97
2023-05-07T00:02:33.713Z,7.96
2023-05-07T00:02:43.744Z,7.96
2023-05-07T00:02:53.806Z,7.97
2023-05-07T00:03:03.678Z,7.94
2023-05-07T00:03:13.719Z,7.94
2023-05-07T00:03:23.828Z,7.94
2023-05-07T00:03:33.736Z,7.96
2023-05-07T00:03:43.760Z,7.96
2023-05-07T00:03:53.755Z,7.96
2023-05-07T00:04:03.834Z,7.94
2023-05-07T00:04:13.799Z,7.94
2023-05-07T00:04:33.677Z,7.94
2023-05-07T00:04:43.662Z,7.93
2023-05-07T00:04:53.697Z,7.93
2023-05-07T00:05:03.852Z,7.94
2023-05-07T00:05:14.043Z,7.94
2023-05-07T00:05:23.673Z,7.94
2023-05-07T00:05:33.656Z,7.93
2023-05-07T00:05:43.684Z,7.94
2023-05-07T00:05:53.650Z,7.93
2023-05-07T00:06:03.686Z,7.94
2023-05-07T00:06:13.661Z,7.94
2023-05-07T00:06:23.718Z,7.94
2023-05-07T00:06:33.659Z,7.93
2023-05-07T00:06:43.661Z,7.94
2023-05-07T00:06:53.655Z,7.93
2023-05-07T00:07:13.659Z,7.93
2023-05-07T00:07:23.667Z,7.93
2023-05-07T00:07:33.672Z,7.93
2023-05-07T00:07:43.676Z,7.93
2023-05-07T00:07:53.668Z,7.94
2023-05-07T00:08:03.664Z,7.93
2023-05-07T00:08:13.664Z,7.93
2023-05-07T00:08:23.673Z,7.93
2023-05-07T00:08:33.686Z,7.93
2023-05-07T00:08:43.673Z,7.93
2023-05-07T00:08:53.674Z,7.93
2023-05-07T00:09:03.666Z,7.96
2023-05-07T00:09:13.695Z,7.94
2023-05-07T00:09:23.661Z,7.94
2023-05-07T00:09:33.665Z,7.96
2023-05-07T00:09:43.679Z,7.96
2023-05-07T00:09:53.678Z,7.94
2023-05-07T00:10:03.679Z,7.96
2023-05-07T00:10:13.934Z,7.94
2023-05-07T00:10:23.693Z,7.96
2023-05-07T00:10:33.678Z,7.94
2023-05-07T00:10:43.664Z,7.96
2023-05-07T00:10:53.685Z,7.93
2023-05-07T00:11:03.687Z,7.94
2023-05-07T00:11:13.687Z,7.96
2023-05-07T00:11:23.685Z,7.96
2023-05-07T00:11:34.978Z,7.94
2023-05-07T00:11:43.681Z,7.94
2023-05-07T00:11:53.696Z,7.94
2023-05-07T00:12:13.695Z,7.94
2023-05-07T00:12:23.687Z,7.94
2023-05-07T00:12:33.682Z,7.93
2023-05-07T00:12:43.742Z,7.93
2023-05-07T00:12:53.730Z,7.93
2023-05-07T00:13:03.758Z,7.93
2023-05-07T00:13:13.768Z,7.94
2023-05-07T00:13:23.797Z,7.94
2023-05-07T00:13:33.692Z,7.94
2023-05-07T00:13:43.688Z,7.94
2023-05-07T00:13:53.693Z,7.94
2023-05-07T00:14:03.692Z,7.94
2023-05-07T00:14:23.718Z,7.94
2023-05-07T00:14:33.702Z,7.93
2023-05-07T00:14:43.704Z,7.93
2023-05-07T00:14:53.694Z,7.93
2023-05-07T00:15:03.710Z,7.94
2023-05-07T00:15:13.834Z,7.96
2023-05-07T00:15:23.736Z,7.96
2023-05-07T00:15:33.693Z,7.96
2023-05-07T00:15:43.706Z,7.97
2023-05-07T00:15:53.702Z,7.97
2023-05-07T00:16:03.762Z,7.97
2023-05-07T00:16:13.714Z,7.97
2023-05-07T00:16:23.768Z,7.98
2023-05-07T00:16:33.744Z,7.98
2023-05-07T00:16:54.277Z,7.98
2023-05-07T00:17:03.708Z,7.98
2023-05-07T00:17:13.722Z,7.98
2023-05-07T00:17:23.761Z,7.98
2023-05-07T00:17:33.750Z,7.97
2023-05-07T00:17:43.744Z,7.97
2023-05-07T00:18:03.775Z,7.97
2023-05-07T00:18:13.723Z,8.01
2023-05-07T00:18:23.737Z,7.98
2023-05-07T00:18:33.722Z,8.02
2023-05-07T00:18:43.714Z,8.01
2023-05-07T00:18:53.717Z,8.01
2023-05-07T00:19:13.739Z,7.98
2023-05-07T00:19:23.718Z,7.98
2023-05-07T00:19:33.716Z,8.01
2023-05-07T00:19:43.713Z,7.98
2023-05-07T00:19:53.715Z,7.98
2023-05-07T00:20:03.756Z,7.98
2023-05-07T00:20:13.866Z,8.01
2023-05-07T00:20:23.730Z,8.02
2023-05-07T00:20:35.965Z,8.01
2023-05-07T00:20:43.744Z,7.98
2023-05-07T00:20:53.722Z,8.01
2023-05-07T00:21:13.741Z,8.01
2023-05-07T00:21:23.723Z,8.01
2023-05-07T00:21:33.765Z,7.98
2023-05-07T00:21:43.729Z,7.98
2023-05-07T00:21:53.728Z,7.98
2023-05-07T00:22:03.728Z,8.01
2023-05-07T00:22:13.753Z,8.01
2023-05-07T00:22:23.753Z,7.98
2023-05-07T00:22:33.746Z,7.98
2023-05-07T00:22:43.735Z,7.98
2023-05-07T00:22:53.737Z,8.01
2023-05-07T00:23:03.731Z,8.02
2023-05-07T00:23:13.736Z,8.01
2023-05-07T00:23:33.740Z,7.98
2023-05-07T00:23:43.736Z,7.98
2023-05-07T00:23:53.738Z,7.98
2023-05-07T00:24:03.843Z,7.97
2023-05-07T00:24:13.734Z,7.97
2023-05-07T00:24:23.749Z,7.98
2023-05-07T00:24:33.742Z,7.98
2023-05-07T00:24:43.744Z,7.98
2023-05-07T00:24:53.747Z,7.98
2023-05-07T00:25:13.750Z,7.96
2023-05-07T00:25:23.745Z,7.97
2023-05-07T00:25:33.747Z,8.01
2023-05-07T00:25:43.750Z,7.97
2023-05-07T00:25:53.753Z,7.98
2023-05-07T00:26:03.755Z,7.98
2023-05-07T00:26:13.765Z,7.97
2023-05-07T00:26:23.746Z,7.98
2023-05-07T00:26:33.783Z,7.98
2023-05-07T00:26:43.757Z,7.98
2023-05-07T00:26:53.795Z,8.01
2023-05-07T00:27:03.755Z,7.98
2023-05-07T00:27:13.772Z,7.98
2023-05-07T00:27:23.756Z,8.01
2023-05-07T00:27:33.753Z,7.98
2023-05-07T00:27:53.752Z,7.98
2023-05-07T00:28:03.780Z,8.01
2023-05-07T00:28:13.774Z,7.98
2023-05-07T00:28:23.785Z,7.98
2023-05-07T00:28:33.754Z,7.98
2023-05-07T00:28:43.772Z,8.01
2023-05-07T00:28:53.762Z,7.98
2023-05-07T00:29:04.319Z,8.01
2023-05-07T00:29:23.775Z,8.01
2023-05-07T00:29:33.764Z,8.01
2023-05-07T00:29:43.768Z,8.01
2023-05-07T00:29:53.769Z,7.98
2023-05-07T00:30:03.769Z,7.98
2023-05-07T00:30:13.881Z,8.01
2023-05-07T00:30:23.774Z,8.01
2023-05-07T00:30:33.769Z,8.02
2023-05-07T00:30:43.761Z,8.02
2023-05-07T00:30:53.766Z,8.01
2023-05-07T00:31:03.769Z,7.98
2023-05-07T00:31:13.809Z,8.02
2023-05-07T00:31:23.799Z,8.01
2023-05-07T00:31:33.807Z,8.02
2023-05-07T00:31:43.834Z,7.98
2023-05-07T00:31:53.776Z,8.01
2023-05-07T00:32:03.830Z,8.01
2023-05-07T00:32:13.802Z,8.01
2023-05-07T00:32:23.798Z,8.01
2023-05-07T00:32:33.804Z,8.02
2023-05-07T00:32:43.795Z,8.02
2023-05-07T00:32:53.862Z,8.02
2023-05-07T00:33:03.862Z,8.02
2023-05-07T00:33:13.782Z,8.02
2023-05-07T00:33:23.794Z,8.01
2023-05-07T00:33:33.780Z,7.98
2023-05-07T00:33:43.929Z,7.98
2023-05-07T00:33:53.797Z,7.98
2023-05-07T00:34:03.788Z,8.01
2023-05-07T00:34:13.789Z,8.01
2023-05-07T00:34:33.794Z,7.98
2023-05-07T00:34:43.791Z,7.98
2023-05-07T00:34:53.822Z,7.98
2023-05-07T00:35:03.783Z,8.01
2023-05-07T00:35:13.797Z,7.98
2023-05-07T00:35:23.789Z,8.01
2023-05-07T00:35:33.838Z,7.98
2023-05-07T00:35:43.796Z,8.02
2023-05-07T00:35:53.792Z,8.01
2023-05-07T00:36:03.797Z,7.98
2023-05-07T00:36:13.798Z,7.98
2023-05-07T00:36:23.797Z,8.01
2023-05-07T00:36:43.798Z,8.01
2023-05-07T00:36:53.796Z,8.01
2023-05-07T00:37:05.356Z,7.98
2023-05-07T00:37:13.795Z,7.98
2023-05-07T00:37:23.812Z,7.98
2023-05-07T00:37:33.799Z,7.98
2023-05-07T00:37:43.803Z,7.97
2023-05-07T00:37:53.801Z,7.97
2023-05-07T00:38:03.803Z,7.97
2023-05-07T00:38:13.811Z,7.97
2023-05-07T00:38:23.850Z,7.98
2023-05-07T00:38:43.820Z,7.97
2023-05-07T00:38:53.805Z,7.97
2023-05-07T00:39:03.806Z,7.97
2023-05-07T00:39:13.817Z,7.97
2023-05-07T00:39:23.805Z,7.98
2023-05-07T00:39:33.816Z,7.97
2023-05-07T00:39:43.814Z,7.97
2023-05-07T00:39:53.808Z,7.97
2023-05-07T00:40:03.811Z,7.97
2023-05-07T00:40:23.829Z,7.97
2023-05-07T00:40:33.819Z,7.97
2023-05-07T00:40:43.812Z,7.97
2023-05-07T00:40:53.811Z,7.97
2023-05-07T00:41:03.814Z,7.97
2023-05-07T00:41:13.832Z,7.96
2023-05-07T00:41:23.822Z,7.97
2023-05-07T00:41:33.812Z,7.96
2023-05-07T00:41:43.820Z,7.97
2023-05-07T00:41:53.816Z,7.97
2023-05-07T00:42:03.816Z,7.96
2023-05-07T00:42:13.843Z,7.96
2023-05-07T00:42:23.831Z,7.94
2023-05-07T00:42:33.826Z,7.97
2023-05-07T00:42:43.850Z,7.96
2023-05-07T00:42:53.821Z,7.94
2023-05-07T00:43:03.831Z,7.94
2023-05-07T00:43:13.828Z,7.94
2023-05-07T00:43:23.834Z,7.94
2023-05-07T00:43:33.826Z,7.96
2023-05-07T00:43:43.825Z,7.94
2023-05-07T00:43:53.842Z,7.94
2023-05-07T00:44:03.865Z,7.94
2023-05-07T00:44:13.836Z,7.93
2023-05-07T00:44:33.850Z,7.94
2023-05-07T00:44:43.838Z,7.96
2023-05-07T00:44:53.829Z,7.94
2023-05-07T00:45:03.847Z,7.96
2023-05-07T00:45:13.836Z,7.94
2023-05-07T00:45:23.837Z,7.94
2023-05-07T00:45:33.853Z,7.96
2023-05-07T00:45:43.934Z,7.96
2023-05-07T00:45:53.947Z,7.94
2023-05-07T00:46:03.910Z,7.96
2023-05-07T00:46:13.944Z,7.96
2023-05-07T00:46:23.839Z,7.96
2023-05-07T00:46:34.026Z,7.96
2023-05-07T00:46:43.872Z,7.94
2023-05-07T00:46:53.847Z,7.94
2023-05-07T00:47:03.857Z,7.96
2023-05-07T00:47:13.830Z,7.96
2023-05-07T00:47:23.858Z,7.94
2023-05-07T00:47:33.879Z,7.96
2023-05-07T00:47:43.928Z,7.93
2023-05-07T00:47:53.865Z,7.96
2023-05-07T00:48:03.877Z,7.96
2023-05-07T00:48:13.854Z,7.96
2023-05-07T00:48:23.892Z,7.97
2023-05-07T00:48:33.847Z,7.94
2023-05-07T00:48:53.866Z,7.96
2023-05-07T00:49:03.859Z,7.97
2023-05-07T00:49:13.849Z,7.96
2023-05-07T00:49:23.896Z,7.96
2023-05-07T00:49:33.869Z,7.96
2023-05-07T00:49:43.864Z,7.94
2023-05-07T00:50:03.864Z,7.94
2023-05-07T00:50:14.231Z,7.96
2023-05-07T00:50:23.884Z,7.97
2023-05-07T00:50:33.854Z,7.97
2023-05-07T00:50:43.856Z,7.96
2023-05-07T00:50:53.871Z,7.96
2023-05-07T00:51:03.853Z,7.96
2023-05-07T00:51:13.868Z,7.96
2023-05-07T00:51:33.872Z,7.96
2023-05-07T00:51:43.861Z,7.94
2023-05-07T00:51:53.876Z,7.94
2023-05-07T00:52:03.858Z,7.96
2023-05-07T00:52:13.875Z,7.96
2023-05-07T00:52:23.860Z,7.94
2023-05-07T00:52:33.870Z,7.94
2023-05-07T00:52:43.872Z,7.94
2023-05-07T00:52:53.872Z,7.96
2023-05-07T00:53:03.874Z,7.94
2023-05-07T00:53:13.891Z,7.94
2023-05-07T00:53:23.852Z,7.94
2023-05-07T00:53:33.860Z,7.94
2023-05-07T00:53:43.865Z,7.93
2023-05-07T00:53:53.864Z,7.94
2023-05-07T00:54:03.868Z,7.93
2023-05-07T00:54:23.874Z,7.93
2023-05-07T00:54:33.864Z,7.91
2023-05-07T00:54:43.873Z,7.91
2023-05-07T00:54:53.868Z,7.90
2023-05-07T00:55:03.877Z,7.90
2023-05-07T00:55:13.874Z,7.91
2023-05-07T00:55:23.877Z,7.90
2023-05-07T00:55:33.875Z,7.90
2023-05-07T00:55:43.890Z,7.90
2023-05-07T00:55:53.876Z,7.90
2023-05-07T00:56:03.881Z,7.88
2023-05-07T00:56:13.899Z,7.87
2023-05-07T00:56:23.903Z,7.88
2023-05-07T00:56:43.875Z,7.90
2023-05-07T00:56:53.887Z,7.88
2023-05-07T00:57:03.891Z,7.88
2023-05-07T00:57:13.909Z,7.88
2023-05-07T00:57:23.877Z,7.88
2023-05-07T00:57:33.888Z,7.87
2023-05-07T00:57:43.881Z,7.87
2023-05-07T00:58:03.888Z,7.87
2023-05-07T00:58:13.894Z,7.88
2023-05-07T00:58:23.891Z,7.88
2023-05-07T00:58:33.913Z,7.90
2023-05-07T00:58:43.924Z,7.88
2023-05-07T00:58:53.908Z,7.90
2023-05-07T00:59:03.961Z,7.88
2023-05-07T00:59:13.930Z,7.88
2023-05-07T00:59:33.962Z,7.88
2023-05-07T00:59:43.890Z,7.90
2023-05-07T00:59:53.888Z,7.90
2023-05-07T01:00:03.889Z,7.88
2023-05-07T01:00:14.703Z,7.90
2023-05-07T01:00:23.890Z,7.90
2023-05-07T01:00:33.915Z,7.90
2023-05-07T01:00:43.892Z,7.90
2023-05-07T01:00:53.959Z,7.90
2023-05-07T01:01:03.921Z,7.88
2023-05-07T01:01:13.957Z,7.90
2023-05-07T01:01:23.974Z,7.88
2023-05-07T01:01:44.001Z,7.88
2023-05-07T01:01:53.897Z,7.90
2023-05-07T01:02:03.920Z,7.90
2023-05-07T01:02:13.900Z,7.88
2023-05-07T01:02:23.939Z,7.88
2023-05-07T01:02:33.953Z,7.87
2023-05-07T01:02:43.930Z,7.87
2023-05-07T01:02:53.959Z,7.87
2023-05-07T01:03:13.916Z,7.87
2023-05-07T01:03:23.920Z,7.87
2023-05-07T01:03:33.923Z,7.87
2023-05-07T01:03:43.949Z,7.87
2023-05-07T01:03:54.049Z,7.87
2023-05-07T01:04:04.006Z,7.87
2023-05-07T01:04:13.967Z,7.87
2023-05-07T01:04:23.973Z,7.86
2023-05-07T01:04:43.927Z,7.88
2023-05-07T01:04:53.915Z,7.87
2023-05-07T01:05:03.932Z,7.86
2023-05-07T01:05:13.960Z,7.86
2023-05-07T01:05:23.920Z,7.87
2023-05-07T01:05:33.918Z,7.86
2023-05-07T01:05:43.932Z,7.86
2023-05-07T01:05:53.932Z,7.86
2023-05-07T01:06:03.916Z,7.86
2023-05-07T01:06:13.924Z,7.87
2023-05-07T01:06:23.925Z,7.86
2023-05-07T01:06:33.913Z,7.86
2023-05-07T01:06:53.914Z,7.87
2023-05-07T01:07:03.929Z,7.86
2023-05-07T01:07:13.915Z,7.86
2023-05-07T01:07:23.937Z,7.84
2023-05-07T01:07:33.930Z,7.87
2023-05-07T01:07:43.959Z,7.86
2023-05-07T01:07:53.929Z,7.84
2023-05-07T01:08:03.929Z,7.83
2023-05-07T01:08:13.926Z,7.83
2023-05-07T01:08:33.967Z,7.83
2023-05-07T01:08:43.932Z,7.83
2023-05-07T01:08:54.022Z,7.84
2023-05-07T01:09:03.941Z,7.84
2023-05-07T01:09:13.937Z,7.84
2023-05-07T01:09:23.934Z,7.83
2023-05-07T01:09:43.945Z,7.84
2023-05-07T01:09:53.937Z,7.84
2023-05-07T01:10:03.952Z,7.84
2023-05-07T01:10:14.254Z,7.84
2023-05-07T01:10:23.942Z,7.83
2023-05-07T01:10:33.951Z,7.83
2023-05-07T01:10:43.970Z,7.80
2023-05-07T01:10:53.944Z,7.83
2023-05-07T01:11:03.940Z,7.84
2023-05-07T01:11:13.984Z,7.84
2023-05-07T01:11:33.948Z,7.83
2023-05-07T01:11:43.944Z,7.80
2023-05-07T01:11:53.937Z,7.83
2023-05-07T01:12:03.960Z,7.84
2023-05-07T01:12:13.985Z,7.83
2023-05-07T01:12:23.976Z,7.83
2023-05-07T01:12:34.096Z,7.83
2023-05-07T01:12:44.003Z,7.83
2023-05-07T01:12:53.968Z,7.83
2023-05-07T01:13:04.001Z,7.83
2023-05-07T01:13:24.132Z,7.83
2023-05-07T01:13:33.952Z,7.83
2023-05-07T01:13:43.975Z,7.83
2023-05-07T01:13:53.949Z,7.84
2023-05-07T01:14:03.951Z,7.83
2023-05-07T01:14:13.963Z,7.83
2023-05-07T01:14:23.966Z,7.80
2023-05-07T01:14:34.014Z,7.80
2023-05-07T01:14:43.957Z,7.80
2023-05-07T01:14:53.961Z,7.83
2023-05-07T01:15:03.963Z,7.80
2023-05-07T01:15:13.968Z,7.80
2023-05-07T01:15:23.972Z,7.83
2023-05-07T01:15:33.965Z,7.83
2023-05-07T01:15:43.968Z,7.80
2023-05-07T01:15:53.959Z,7.80
2023-05-07T01:16:03.965Z,7.80
2023-05-07T01:16:13.972Z,7.80
2023-05-07T01:16:24.006Z,7.80
2023-05-07T01:16:34.043Z,7.80
2023-05-07T01:16:44.013Z,7.80
2023-05-07T01:16:54.034Z,7.79
2023-05-07T01:17:14.023Z,7.80
2023-05-07T01:17:24.040Z,7.80
2023-05-07T01:17:33.990Z,7.80
2023-05-07T01:17:44.058Z,7.80
2023-05-07T01:17:54.006Z,7.80
2023-05-07T01:18:04.024Z,7.83
2023-05-07T01:18:13.973Z,7.83
2023-05-07T01:18:33.975Z,7.80
2023-05-07T01:18:43.979Z,7.84
2023-05-07T01:18:53.978Z,7.83
2023-05-07T01:19:03.976Z,7.83
2023-05-07T01:19:14.094Z,7.84
2023-05-07T01:19:24.015Z,7.83
2023-05-07T01:19:33.977Z,7.83
2023-05-07T01:19:43.985Z,7.83
2023-05-07T01:19:53.993Z,7.83
2023-05-07T01:20:03.993Z,7.83
2023-05-07T01:20:23.982Z,7.84
2023-05-07T01:20:33.982Z,7.80
2023-05-07T01:20:43.987Z,7.80
2023-05-07T01:20:53.984Z,7.80
2023-05-07T01:21:03.984Z,7.80
2023-05-07T01:21:13.970Z,7.80
2023-05-07T01:21:23.999Z,7.80
2023-05-07T01:21:33.987Z,7.80
2023-05-07T01:21:43.994Z,7.80
2023-05-07T01:21:53.985Z,7.80
2023-05-07T01:22:03.986Z,7.80
2023-05-07T01:22:13.995Z,7.80
2023-05-07T01:22:24.010Z,7.80
2023-05-07T01:22:33.989Z,7.79
2023-05-07T01:22:44.017Z,7.80
2023-05-07T01:22:53.994Z,7.80
2023-05-07T01:23:13.994Z,7.83
2023-05-07T01:23:24.009Z,7.83
2023-05-07T01:23:33.995Z,7.80
2023-05-07T01:23:44.003Z,7.83
2023-05-07T01:23:53.994Z,7.79
2023-05-07T01:24:04.001Z,7.80
2023-05-07T01:24:14.000Z,7.80
2023-05-07T01:24:24.003Z,7.79
2023-05-07T01:24:34.018Z,7.80
2023-05-07T01:24:44.014Z,7.79
2023-05-07T01:24:53.999Z,7.79
2023-05-07T01:25:04.005Z,7.80
2023-05-07T01:25:24.001Z,7.80
2023-05-07T01:25:34.000Z,7.80
2023-05-07T01:25:44.015Z,7.83
2023-05-07T01:25:54.043Z,7.84
2023-05-07T01:26:04.004Z,7.84
2023-05-07T01:26:14.007Z,7.84
2023-05-07T01:26:34.007Z,7.84
2023-05-07T01:26:44.013Z,7.84
2023-05-07T01:26:54.003Z,7.84
2023-05-07T01:27:04.013Z,7.83
2023-05-07T01:27:14.009Z,7.84
2023-05-07T01:27:24.006Z,7.84
2023-05-07T01:27:34.009Z,7.84
2023-05-07T01:27:44.001Z,7.83
2023-05-07T01:27:54.016Z,7.83
2023-05-07T01:28:04.008Z,7.84
2023-05-07T01:28:14.011Z,7.84
2023-05-07T01:28:34.009Z,7.80
2023-05-07T01:28:44.013Z,7.79
2023-05-07T01:28:54.027Z,7.80
2023-05-07T01:29:04.025Z,7.80
2023-05-07T01:29:14.021Z,7.79
2023-05-07T01:29:24.017Z,7.79
2023-05-07T01:29:34.016Z,7.80
2023-05-07T01:29:54.012Z,7.79
2023-05-07T01:30:04.021Z,7.79
2023-05-07T01:30:14.211Z,7.79
2023-05-07T01:30:24.034Z,7.79
2023-05-07T01:30:34.020Z,7.79
2023-05-07T01:30:44.029Z,7.78
2023-05-07T01:30:54.122Z,7.78
2023-05-07T01:31:04.132Z,7.78
2023-05-07T01:31:14.054Z,7.79
2023-05-07T01:31:24.101Z,7.76
2023-05-07T01:31:34.093Z,7.78
2023-05-07T01:31:44.215Z,7.78
2023-05-07T01:31:54.081Z,7.78
2023-05-07T01:32:04.039Z,7.78
2023-05-07T01:32:14.045Z,7.78
2023-05-07T01:32:24.053Z,7.79
2023-05-07T01:32:34.072Z,7.76
2023-05-07T01:32:44.044Z,7.76
2023-05-07T01:32:54.060Z,7.75
2023-05-07T01:33:04.077Z,7.76
2023-05-07T01:33:14.028Z,7.76
2023-05-07T01:33:24.045Z,7.76
2023-05-07T01:33:34.036Z,7.78
2023-05-07T01:33:44.048Z,7.78
2023-05-07T01:33:54.031Z,7.76
2023-05-07T01:34:04.041Z,7.75
2023-05-07T01:34:24.044Z,7.75
2023-05-07T01:34:34.054Z,7.75
2023-05-07T01:34:44.039Z,7.75
2023-05-07T01:34:54.039Z,7.76
2023-05-07T01:35:04.048Z,7.75
2023-05-07T01:35:14.061Z,7.75
2023-05-07T01:35:34.081Z,7.76
2023-05-07T01:35:44.063Z,7.75
2023-05-07T01:35:54.047Z,7.75
2023-05-07T01:36:04.046Z,7.76
2023-05-07T01:36:14.047Z,7.76
2023-05-07T01:36:24.046Z,7.76
2023-05-07T01:36:34.087Z,7.76
2023-05-07T01:36:44.047Z,7.76
2023-05-07T01:36:54.049Z,7.78
2023-05-07T01:37:04.057Z,7.78
2023-05-07T01:37:14.052Z,7.76
2023-05-07T01:37:24.052Z,7.76
2023-05-07T01:37:44.055Z,7.78
2023-05-07T01:37:54.063Z,7.76
2023-05-07T01:38:04.061Z,7.75
2023-05-07T01:38:14.055Z,7.76
2023-05-07T01:38:24.058Z,7.75
2023-05-07T01:38:34.061Z,7.73
2023-05-07T01:38:44.075Z,7.75
2023-05-07T01:38:54.079Z,7.73
2023-05-07T01:39:04.077Z,7.75
2023-05-07T01:39:14.056Z,7.75
2023-05-07T01:39:24.058Z,7.73
2023-05-07T01:39:34.065Z,7.75
2023-05-07T01:39:54.047Z,7.75
2023-05-07T01:40:04.073Z,7.75
2023-05-07T01:40:14.061Z,7.75
2023-05-07T01:40:24.069Z,7.75
2023-05-07T01:40:34.081Z,7.73
2023-05-07T01:40:44.062Z,7.75
2023-05-07T01:40:54.063Z,7.73
2023-05-07T01:41:04.096Z,7.73
2023-05-07T01:41:14.082Z,7.75
2023-05-07T01:41:24.056Z,7.73
2023-05-07T01:41:44.076Z,7.76
2023-05-07T01:41:54.068Z,7.75
2023-05-07T01:42:04.082Z,7.73
2023-05-07T01:42:14.085Z,7.73
2023-05-07T01:42:24.074Z,7.76
2023-05-07T01:42:34.070Z,7.73
2023-05-07T01:42:44.069Z,7.75
2023-05-07T01:42:54.073Z,7.75
2023-05-07T01:43:04.084Z,7.75
2023-05-07T01:43:24.081Z,7.75
2023-05-07T01:43:34.074Z,7.76
2023-05-07T01:43:44.091Z,7.76
2023-05-07T01:43:54.078Z,7.75
2023-05-07T01:44:04.077Z,7.76
2023-05-07T01:44:14.074Z,7.76
2023-05-07T01:44:24.093Z,7.76
2023-05-07T01:44:34.107Z,7.76
2023-05-07T01:44:54.094Z,7.78
2023-05-07T01:45:04.074Z,7.76
2023-05-07T01:45:14.085Z,7.76
2023-05-07T01:45:24.096Z,7.76
2023-05-07T01:45:34.111Z,7.76
2023-05-07T01:45:44.082Z,7.75
2023-05-07T01:45:54.147Z,7.76
2023-05-07T01:46:04.110Z,7.75
2023-05-07T01:46:24.163Z,7.75
2023-05-07T01:46:34.095Z,7.75
2023-05-07T01:46:44.111Z,7.76
2023-05-07T01:46:54.121Z,7.75
2023-05-07T01:47:04.100Z,7.75
2023-05-07T01:47:14.103Z,7.75
2023-05-07T01:47:34.142Z,7.76
2023-05-07T01:47:44.153Z,7.76
2023-05-07T01:47:54.111Z,7.78
2023-05-07T01:48:04.181Z,7.76
2023-05-07T01:48:14.101Z,7.76
2023-05-07T01:48:24.114Z,7.76
2023-05-07T01:48:34.101Z,7.76
2023-05-07T01:48:44.131Z,7.76
2023-05-07T01:48:54.894Z,7.75
2023-05-07T01:49:04.099Z,7.76
2023-05-07T01:49:24.096Z,7.78
2023-05-07T01:49:34.101Z,7.76
2023-05-07T01:49:44.098Z,7.76
2023-05-07T01:49:54.096Z,7.75
2023-05-07T01:50:04.100Z,7.75
2023-05-07T01:50:14.189Z,7.75
2023-05-07T01:50:24.111Z,7.76
2023-05-07T01:50:44.110Z,7.75
2023-05-07T01:50:54.115Z,7.75
2023-05-07T01:51:04.106Z,7.76
2023-05-07T01:51:14.110Z,7.76
2023-05-07T01:51:24.108Z,7.76
2023-05-07T01:51:34.106Z,7.76
2023-05-07T01:51:44.104Z,7.76
2023-05-07T01:51:54.102Z,7.73
2023-05-07T01:52:04.124Z,7.76
2023-05-07T01:52:24.110Z,7.76
2023-05-07T01:52:34.105Z,7.76
2023-05-07T01:52:44.110Z,7.76
2023-05-07T01:52:54.103Z,7.76
2023-05-07T01:53:04.121Z,7.76
2023-05-07T01:53:14.113Z,7.76
2023-05-07T01:53:24.108Z,7.75
2023-05-07T01:53:34.115Z,7.75
2023-05-07T01:53:44.108Z,7.76
2023-05-07T01:53:54.123Z,7.75
2023-05-07T01:54:14.119Z,7.75
2023-05-07T01:54:24.114Z,7.76
2023-05-07T01:54:34.127Z,7.76
2023-05-07T01:54:44.152Z,7.76
2023-05-07T01:54:54.116Z,7.76
2023-05-07T01:55:04.120Z,7.75
2023-05-07T01:55:14.118Z,7.76
2023-05-07T01:55:24.119Z,7.76
2023-05-07T01:55:34.114Z,7.76
2023-05-07T01:55:44.131Z,7.76
2023-05-07T01:55:54.124Z,7.75
2023-05-07T01:56:04.126Z,7.76
2023-05-07T01:56:14.122Z,7.76
2023-05-07T01:56:24.122Z,7.73
2023-05-07T01:56:34.119Z,7.75
2023-05-07T01:56:54.110Z,7.73
2023-05-07T01:57:04.127Z,7.75
2023-05-07T01:57:14.126Z,7.73
2023-05-07T01:57:24.125Z,7.72
2023-05-07T01:57:34.121Z,7.73
2023-05-07T01:57:44.130Z,7.75
2023-05-07T01:57:54.123Z,7.73
2023-05-07T01:58:04.129Z,7.73
2023-05-07T01:58:24.111Z,7.73
2023-05-07T01:58:34.126Z,7.75
2023-05-07T01:58:44.122Z,7.73
2023-05-07T01:58:54.149Z,7.76
2023-05-07T01:59:04.140Z,7.75
2023-05-07T01:59:14.138Z,7.75
2023-05-07T01:59:24.148Z,7.73
2023-05-07T01:59:34.130Z,7.75
2023-05-07T01:59:44.147Z,7.73
2023-05-07T01:59:54.144Z,7.73
2023-05-07T02:00:14.150Z,7.73
2023-05-07T02:00:24.142Z,7.73
2023-05-07T02:00:34.135Z,7.72
2023-05-07T02:00:44.150Z,7.72
2023-05-07T02:00:54.137Z,7.73
2023-05-07T02:01:04.147Z,7.72
2023-05-07T02:01:14.236Z,7.70
2023-05-07T02:01:34.164Z,7.70
2023-05-07T02:01:44.167Z,7.72
2023-05-07T02:01:54.207Z,7.72
2023-05-07T02:02:04.207Z,7.72
2023-05-07T02:02:14.249Z,7.72
2023-05-07T02:02:24.192Z,7.72
2023-05-07T02:02:34.188Z,7.73
2023-05-07T02:02:44.236Z,7.72
2023-05-07T02:02:54.251Z,7.73
2023-05-07T02:03:04.359Z,7.73
2023-05-07T02:03:14.250Z,7.73
2023-05-07T02:03:24.289Z,7.72
2023-05-07T02:03:34.245Z,7.72
2023-05-07T02:03:44.287Z,7.72
2023-05-07T02:03:54.230Z,7.72
2023-05-07T02:04:04.179Z,7.72
2023-05-07T02:04:14.246Z,7.72
2023-05-07T02:04:24.162Z,7.72
2023-05-07T02:04:34.149Z,7.70
2023-05-07T02:04:44.320Z,7.72
2023-05-07T02:04:54.154Z,7.70
2023-05-07T02:05:04.165Z,7.70
2023-05-07T02:05:14.155Z,7.69
2023-05-07T02:05:34.157Z,7.70
2023-05-07T02:05:44.161Z,7.70
2023-05-07T02:05:57.219Z,7.69
2023-05-07T02:06:04.165Z,7.69
2023-05-07T02:06:14.164Z,7.69
2023-05-07T02:06:24.158Z,7.69
2023-05-07T02:06:34.150Z,7.69
2023-05-07T02:06:44.163Z,7.69
2023-05-07T02:06:54.192Z,7.69
2023-05-07T02:07:04.171Z,7.68
2023-05-07T02:07:14.168Z,7.69
2023-05-07T02:07:24.160Z,7.69
2023-05-07T02:07:34.166Z,7.69
2023-05-07T02:07:44.163Z,7.68
2023-05-07T02:07:54.180Z,7.68
2023-05-07T02:08:04.177Z,7.66
2023-05-07T02:08:14.168Z,7.68
2023-05-07T02:08:24.166Z,7.68
2023-05-07T02:08:34.180Z,7.69
2023-05-07T02:08:44.167Z,7.68
2023-05-07T02:08:54.164Z,7.68
2023-05-07T02:09:04.187Z,7.66
2023-05-07T02:09:14.174Z,7.64
2023-05-07T02:09:34.183Z,7.64
2023-05-07T02:09:44.172Z,7.60
2023-05-07T02:09:54.173Z,7.59
2023-05-07T02:10:04.193Z,7.59
2023-05-07T02:10:14.181Z,7.62
2023-05-07T02:10:24.178Z,7.59
2023-05-07T02:10:34.178Z,7.59
2023-05-07T02:10:44.184Z,7.62
2023-05-07T02:10:54.179Z,7.60
2023-05-07T02:11:14.180Z,7.60
2023-05-07T02:11:24.181Z,7.59
2023-05-07T02:11:34.192Z,7.59
2023-05-07T02:11:44.186Z,7.60
2023-05-07T02:11:54.186Z,7.59
2023-05-07T02:12:04.189Z,7.59
2023-05-07T02:12:24.190Z,7.60
2023-05-07T02:12:34.331Z,7.59
2023-05-07T02:12:44.271Z,7.60
2023-05-07T02:12:54.322Z,7.60
2023-05-07T02:13:04.218Z,7.60
2023-05-07T02:13:14.264Z,7.60
2023-05-07T02:13:24.215Z,7.59
2023-05-07T02:13:44.190Z,7.60
2023-05-07T02:13:54.207Z,7.59
2023-05-07T02:14:04.190Z,7.60
2023-05-07T02:14:14.188Z,7.57
2023-05-07T02:14:24.186Z,7.59
2023-05-07T02:14:34.199Z,7.57
2023-05-07T02:14:44.228Z,7.59
2023-05-07T02:15:04.194Z,7.60
2023-05-07T02:15:14.224Z,7.59
2023-05-07T02:15:24.194Z,7.59
2023-05-07T02:15:34.228Z,7.60
2023-05-07T02:15:44.214Z,7.59
2023-05-07T02:15:54.260Z,7.59
2023-05-07T02:16:04.214Z,7.59
2023-05-07T02:16:14.233Z,7.59
2023-05-07T02:16:24.261Z,7.57
2023-05-07T02:16:34.271Z,7.59
2023-05-07T02:16:44.279Z,7.57
2023-05-07T02:16:54.288Z,7.57
2023-05-07T02:17:04.212Z,7.56
2023-05-07T02:17:14.221Z,7.54
2023-05-07T02:17:24.256Z,7.56
2023-05-07T02:17:44.240Z,7.54
2023-05-07T02:17:54.256Z,7.56
2023-05-07T02:18:04.238Z,7.56
2023-05-07T02:18:14.207Z,7.56
2023-05-07T02:18:24.210Z,7.56
2023-05-07T02:18:34.230Z,7.56
2023-05-07T02:18:44.226Z,7.52
2023-05-07T02:18:54.246Z,7.53
2023-05-07T02:19:04.221Z,7.52
2023-05-07T02:19:14.215Z,7.53
2023-05-07T02:19:24.236Z,7.50
2023-05-07T02:19:34.229Z,7.50
2023-05-07T02:19:44.238Z,7.52
2023-05-07T02:19:54.293Z,7.49
2023-05-07T02:20:04.233Z,7.50
2023-05-07T02:20:14.228Z,7.50
2023-05-07T02:20:24.226Z,7.49
2023-05-07T02:20:34.217Z,7.49
2023-05-07T02:20:54.222Z,7.46
2023-05-07T02:21:04.224Z,7.49
2023-05-07T02:21:14.232Z,7.47
2023-05-07T02:21:24.234Z,7.47
2023-05-07T02:21:34.227Z,7.49
2023-05-07T02:21:44.227Z,7.49
2023-05-07T02:21:54.221Z,7.49
2023-05-07T02:22:04.221Z,7.47
2023-05-07T02:22:24.252Z,7.49
2023-05-07T02:22:34.236Z,7.47
2023-05-07T02:22:44.241Z,7.47
2023-05-07T02:22:54.240Z,7.49
2023-05-07T02:23:04.240Z,7.49
2023-05-07T02:23:14.239Z,7.47
2023-05-07T02:23:34.258Z,7.47
2023-05-07T02:23:44.244Z,7.47
2023-05-07T02:23:54.232Z,7.47
2023-05-07T02:24:04.235Z,7.47
2023-05-07T02:24:14.237Z,7.49
2023-05-07T02:24:24.255Z,7.47